Forside
METAR-TAF:

METAR-TAF

Lufthavne :

Shimla, Indien

Breddekreds: 31-04-54N, længdekreds: 77-04-05E, højde: 1546 m

METAR: fraværende

Tid: 13:13 (07:43 UTC)

Vejrudsigter

Denne rapport blev lavet for 26 timer og 43 minutter siden, kl. 05:00 UTC
Foreløbig gælder fra 21 på 06 UTC til 21 på 15 UTC
Vind kt fra nord
Sigt: 6000 m
Nogle få skyer i en højde af 3000 ft
Brudte skyer i en højde af 8000 ft
Midlertidig
fra 21 på 09 UTC til 21 på 14 UTC
Vind 10 kt fra nordøst
Sigt: 5000 m
Spredte skyer i en højde af 3000 ft
Nogle få skyer i en højde af 3500 ft, Cumulonimbus.
Overskyet i en højde af 8000 ft
tordenbyger, let regn

TAF: VISM 210500Z 2106/2115 00000KT 6000 FEW030 BKN080 TEMPO 2109/2114 05010KT 5000 -TSRA SCT030 FEW035CB OVC080

Vejrobservationer og prognoser fra mere end 4000 lufthavne (METAR og TAF).

De gule og røde prikker repræsenterer de meteorologiske stationer.

Flyt musen over at se navnet på stationen.

Så klik over at se vejr observationer og prognoser.

At skifte det kort: Klik på de grønne knapper med et sort kors for at zoome ind; på den grønne knap med en bindestreg for at zoome ud; eller på de grønne pile for tilstødende kort.


METAR-TAF: